Samail, Oman
Current Conditions -  °F | °C
As of 5:50 PM on Saturday 22 Nov 2014 (Local Time) from OOMS Reporting Station
Clear Clear  
Wind Chill: 79°   Ceiling: Unl
Heat Index: 81°   Visibility: 6mi
Dew Point: 66°   Wind: 3mph
Humidity: 65%   Direction: 330°NNW
Pressure: 29.97"   Gusts: NA
Location:  23.3°N, 57.93°E
Report Text: OOMS 221350Z 33003KT CAVOK 26/19 Q1015 NOSIG
Loading
Personal Weather Stations






























Interactive Weather Map New forecast layout! Learn more

10-Day Weather Forecast

Advertisements
Track Severe Weather on mobile